createdAt,value
2022-10-22T00:00:17.800Z,99868.84
2022-10-22T00:02:44.748Z,99878.47
2022-10-22T00:05:11.652Z,99870.69
2022-10-22T00:07:38.754Z,99869.31
2022-10-22T00:10:07.490Z,99882.81
2022-10-22T00:12:35.068Z,99878.50
2022-10-22T00:15:02.301Z,99883.47
2022-10-22T00:17:29.010Z,99889.00
2022-10-22T00:19:55.790Z,99895.13
2022-10-22T00:22:22.485Z,99902.28
2022-10-22T00:24:49.309Z,99904.38
2022-10-22T00:27:16.038Z,99900.53
2022-10-22T00:29:42.873Z,99905.84
2022-10-22T00:32:09.590Z,99907.44
2022-10-22T00:34:36.438Z,99913.16
2022-10-22T00:37:03.251Z,99915.81
2022-10-22T00:39:30.242Z,99925.03
2022-10-22T00:41:58.433Z,99921.19
2022-10-22T00:45:01.988Z,99923.22
2022-10-22T00:47:33.148Z,99928.53
2022-10-22T00:50:01.688Z,99934.47
2022-10-22T00:52:29.056Z,99936.09
2022-10-22T00:54:57.022Z,99931.38
2022-10-22T00:57:24.048Z,99937.75
2022-10-22T00:59:50.814Z,99944.28
2022-10-22T01:02:18.067Z,99949.00
2022-10-22T01:04:45.318Z,99941.47
2022-10-22T01:07:20.499Z,99950.88
2022-10-22T01:10:14.238Z,99959.63
2022-10-22T01:12:41.298Z,99961.69
2022-10-22T01:15:49.008Z,99961.25
2022-10-22T01:18:38.157Z,99959.69
2022-10-22T01:21:27.257Z,99969.31
2022-10-22T01:24:11.842Z,99975.28
2022-10-22T01:26:57.110Z,99970.81
2022-10-22T01:29:37.645Z,99976.78
2022-10-22T01:32:13.286Z,99972.72
2022-10-22T01:34:43.933Z,99984.59
2022-10-22T01:37:14.048Z,99981.16
2022-10-22T01:39:43.964Z,99995.31
2022-10-22T01:42:12.831Z,100002.06
2022-10-22T01:44:40.312Z,100003.69
2022-10-22T01:47:27.978Z,100004.09
2022-10-22T01:50:03.543Z,100004.31
2022-10-22T01:52:58.494Z,100001.88
2022-10-22T01:55:38.756Z,100016.19
2022-10-22T01:58:11.309Z,100011.28
2022-10-22T02:00:44.820Z,100007.22
2022-10-22T02:03:22.770Z,100010.31
2022-10-22T02:06:05.863Z,100009.28
2022-10-22T02:08:35.674Z,100021.31
2022-10-22T02:11:04.255Z,100017.84
2022-10-22T02:13:37.770Z,100019.31
2022-10-22T02:16:08.142Z,100013.38
2022-10-22T02:18:38.818Z,100019.50
2022-10-22T02:23:35.693Z,100025.84
2022-10-22T02:26:34.794Z,100038.94
2022-10-22T02:29:12.053Z,100038.50
2022-10-22T02:31:43.480Z,100044.03
2022-10-22T02:34:16.067Z,100043.88
2022-10-22T02:36:48.070Z,100049.59
2022-10-22T02:39:19.268Z,100051.41
2022-10-22T02:41:46.031Z,100059.00
2022-10-22T02:44:12.798Z,100058.63
2022-10-22T02:46:40.557Z,100054.50
2022-10-22T02:49:07.484Z,100062.28
2022-10-22T02:51:34.754Z,100065.53
2022-10-22T02:54:01.543Z,100064.13
2022-10-22T02:56:28.395Z,100070.44
2022-10-22T02:58:55.164Z,100079.25
2022-10-22T03:01:22.119Z,100086.59
2022-10-22T03:03:49.277Z,100089.88
2022-10-22T03:06:16.201Z,100100.50
2022-10-22T03:08:43.532Z,100092.72
2022-10-22T03:11:10.561Z,100099.50
2022-10-22T03:13:37.394Z,100093.31
2022-10-22T03:16:04.561Z,100098.63
2022-10-22T03:18:31.296Z,100108.28
2022-10-22T03:21:19.582Z,100114.19
2022-10-22T03:23:46.696Z,100117.44
2022-10-22T03:26:14.297Z,100129.31
2022-10-22T03:28:42.302Z,100138.47
2022-10-22T03:31:09.572Z,100141.78
2022-10-22T03:33:36.281Z,100140.75
2022-10-22T03:36:03.030Z,100142.81
2022-10-22T03:38:30.647Z,100147.91
2022-10-22T03:40:58.082Z,100147.09
2022-10-22T03:43:24.935Z,100151.75
2022-10-22T03:45:52.169Z,100156.69
2022-10-22T03:48:27.179Z,100160.16
2022-10-22T03:50:54.032Z,100164.66
2022-10-22T03:53:21.580Z,100170.56
2022-10-22T03:55:48.434Z,100172.19
2022-10-22T03:58:15.201Z,100184.88
2022-10-22T04:00:42.004Z,100178.75
2022-10-22T04:03:08.743Z,100186.09
2022-10-22T04:05:35.464Z,100190.59
2022-10-22T04:08:02.196Z,100195.91
2022-10-22T04:10:29.007Z,100196.34
2022-10-22T04:12:55.850Z,100195.94
2022-10-22T04:15:22.667Z,100206.34
2022-10-22T04:17:49.413Z,100203.91
2022-10-22T04:20:16.238Z,100214.53
2022-10-22T04:22:42.983Z,100219.00
2022-10-22T04:25:09.995Z,100213.94
2022-10-22T04:27:37.362Z,100222.47
2022-10-22T04:30:06.730Z,100228.22
2022-10-22T04:32:33.479Z,100244.56
2022-10-22T04:35:00.295Z,100238.84
2022-10-22T04:37:27.004Z,100249.66
2022-10-22T04:39:53.854Z,100252.50
2022-10-22T04:42:20.615Z,100244.78
2022-10-22T04:44:47.341Z,100248.63
2022-10-22T04:47:14.107Z,100257.00
2022-10-22T04:49:41.006Z,100262.72
2022-10-22T04:52:07.849Z,100264.97
2022-10-22T04:54:34.751Z,100266.81
2022-10-22T04:57:01.563Z,100268.81
2022-10-22T04:59:28.323Z,100276.00
2022-10-22T05:01:55.267Z,100274.75
2022-10-22T05:04:22.034Z,100283.53
2022-10-22T05:06:48.833Z,100282.31
2022-10-22T05:09:18.579Z,100279.88
2022-10-22T05:11:48.971Z,100282.94
2022-10-22T05:14:24.802Z,100287.81
2022-10-22T05:16:52.418Z,100289.03
2022-10-22T05:19:24.156Z,100283.72
2022-10-22T05:21:52.863Z,100290.69
2022-10-22T05:24:19.605Z,100298.22
2022-10-22T05:26:46.502Z,100295.56
2022-10-22T05:29:13.968Z,100301.69
2022-10-22T05:31:41.330Z,100308.03
2022-10-22T05:34:08.165Z,100316.63
2022-10-22T05:36:35.152Z,100314.56
2022-10-22T05:39:02.061Z,100316.41
2022-10-22T05:41:29.429Z,100321.69
2022-10-22T05:43:58.176Z,100324.13
2022-10-22T05:46:27.533Z,100326.78
2022-10-22T05:48:57.100Z,100336.81
2022-10-22T05:51:24.827Z,100331.47
2022-10-22T05:53:57.287Z,100331.25
2022-10-22T05:56:25.558Z,100330.66
2022-10-22T05:58:52.808Z,100334.09
2022-10-22T06:01:24.947Z,100341.66
2022-10-22T06:03:56.886Z,100346.72
2022-10-22T06:06:37.446Z,100345.31
2022-10-22T06:09:21.475Z,100355.47
2022-10-22T06:11:48.984Z,100343.44
2022-10-22T06:14:17.255Z,100355.47
2022-10-22T06:16:44.192Z,100346.88
2022-10-22T06:19:16.499Z,100350.16
2022-10-22T06:21:44.009Z,100364.03
2022-10-22T06:24:12.004Z,100370.16
2022-10-22T06:26:39.979Z,100372.38
2022-10-22T06:29:07.702Z,100380.94
2022-10-22T06:31:37.152Z,100376.28
2022-10-22T06:34:10.750Z,100393.19
2022-10-22T06:36:38.333Z,100400.97
2022-10-22T06:39:05.624Z,100401.97
2022-10-22T06:41:32.605Z,100402.38
2022-10-22T06:44:00.242Z,100410.13
2022-10-22T06:46:27.262Z,100412.31
2022-10-22T06:49:02.661Z,100410.13
2022-10-22T06:51:29.998Z,100419.50
2022-10-22T06:53:58.255Z,100422.16
2022-10-22T06:56:28.969Z,100431.94
2022-10-22T06:58:57.417Z,100431.50
2022-10-22T07:01:28.246Z,100434.34
2022-10-22T07:03:55.416Z,100438.03
2022-10-22T07:06:23.341Z,100435.00
2022-10-22T07:08:50.546Z,100449.50
2022-10-22T07:11:23.344Z,100459.28
2022-10-22T07:13:51.188Z,100460.09
2022-10-22T07:16:18.628Z,100466.41
2022-10-22T07:18:46.846Z,100470.72
2022-10-22T07:21:16.274Z,100474.19
2022-10-22T07:23:43.228Z,100485.22
2022-10-22T07:26:12.719Z,100483.59
2022-10-22T07:28:41.217Z,100482.97
2022-10-22T07:31:10.223Z,100495.22
2022-10-22T07:33:37.937Z,100498.88
2022-10-22T07:36:07.721Z,100504.63
2022-10-22T07:38:36.436Z,100510.97
2022-10-22T07:41:03.946Z,100503.44
2022-10-22T07:43:30.739Z,100516.72
2022-10-22T07:45:57.665Z,100515.28
2022-10-22T07:48:30.434Z,100520.59
2022-10-22T07:50:58.578Z,100526.28
2022-10-22T07:53:25.619Z,100523.63
2022-10-22T07:55:53.091Z,100536.31
2022-10-22T07:58:27.171Z,100544.69
2022-10-22T08:01:00.966Z,100565.09
2022-10-22T08:03:28.581Z,100559.78
2022-10-22T08:05:56.177Z,100546.53
2022-10-22T08:08:28.345Z,100558.78
2022-10-22T08:10:59.581Z,100555.72
2022-10-22T08:13:27.736Z,100564.34
2022-10-22T08:15:57.381Z,100562.50
2022-10-22T08:18:31.221Z,100559.63
2022-10-22T08:20:58.306Z,100564.56
2022-10-22T08:23:27.599Z,100564.38
2022-10-22T08:25:56.070Z,100572.97
2022-10-22T08:28:29.753Z,100566.22
2022-10-22T08:30:57.666Z,100576.25
2022-10-22T08:33:25.717Z,100574.78
2022-10-22T08:35:54.673Z,100584.56
2022-10-22T08:38:26.470Z,100586.41
2022-10-22T08:40:57.475Z,100590.72
2022-10-22T08:43:49.023Z,100593.56
2022-10-22T08:46:34.289Z,100591.53
2022-10-22T08:49:05.649Z,100595.00
2022-10-22T08:51:40.765Z,100591.53
2022-10-22T08:54:22.326Z,100591.53
2022-10-22T08:57:09.975Z,100593.19
2022-10-22T08:59:59.865Z,100593.19
2022-10-22T09:02:29.319Z,100598.31
2022-10-22T09:05:25.438Z,100596.72
2022-10-22T09:07:53.289Z,100598.16
2022-10-22T09:10:36.045Z,100600.97
2022-10-22T09:13:03.060Z,100608.13
2022-10-22T09:15:31.647Z,100610.78
2022-10-22T09:18:31.654Z,100613.88
2022-10-22T09:21:27.989Z,100616.13
2022-10-22T09:23:57.737Z,100620.44
2022-10-22T09:26:26.069Z,100623.72
2022-10-22T09:28:53.318Z,100615.38
2022-10-22T09:31:20.173Z,100626.63
2022-10-22T09:33:50.401Z,100626.22
2022-10-22T09:36:18.753Z,100620.72
2022-10-22T09:38:49.387Z,100616.47
2022-10-22T09:41:17.425Z,100614.84
2022-10-22T09:43:47.689Z,100630.84
2022-10-22T09:46:26.606Z,100631.91
2022-10-22T09:48:56.118Z,100638.44
2022-10-22T09:51:36.515Z,100628.47
2022-10-22T09:54:19.069Z,100641.41
2022-10-22T09:57:18.188Z,100637.97
2022-10-22T09:59:49.180Z,100642.28
2022-10-22T10:02:37.542Z,100638.22
2022-10-22T10:05:06.738Z,100639.66
2022-10-22T10:07:36.123Z,100642.13
2022-10-22T10:10:12.458Z,100640.72
2022-10-22T10:12:48.997Z,100650.16
2022-10-22T10:15:23.183Z,100642.03
2022-10-22T10:18:04.303Z,100649.00
2022-10-22T10:20:43.340Z,100648.00
2022-10-22T10:23:16.001Z,100647.59
2022-10-22T10:26:20.638Z,100646.56
2022-10-22T10:29:05.900Z,100654.19
2022-10-22T10:31:49.884Z,100659.72
2022-10-22T10:34:19.398Z,100660.75
2022-10-22T10:37:12.385Z,100662.38
2022-10-22T10:39:45.125Z,100659.13
2022-10-22T10:42:20.274Z,100659.56
2022-10-22T10:45:23.368Z,100664.28
2022-10-22T10:48:05.249Z,100669.81
2022-10-22T10:50:35.038Z,100668.59
2022-10-22T10:53:20.062Z,100670.88
2022-10-22T10:56:05.033Z,100668.59
2022-10-22T10:58:40.005Z,100665.31
2022-10-22T11:01:23.302Z,100679.88
2022-10-22T11:04:14.810Z,100666.56
2022-10-22T11:06:45.034Z,100666.16
2022-10-22T11:09:37.791Z,100666.56
2022-10-22T11:12:15.255Z,100669.00
2022-10-22T11:14:57.364Z,100671.28
2022-10-22T11:17:28.651Z,100664.72
2022-10-22T11:20:04.621Z,100674.34
2022-10-22T11:23:13.071Z,100676.59
2022-10-22T11:25:59.619Z,100675.19
2022-10-22T11:28:38.126Z,100675.78
2022-10-22T11:31:14.019Z,100670.44
2022-10-22T11:34:04.995Z,100672.72
2022-10-22T11:36:38.376Z,100679.88
2022-10-22T11:39:05.587Z,100681.50
2022-10-22T11:41:34.634Z,100680.28
2022-10-22T11:44:11.973Z,100672.50
2022-10-22T11:46:44.601Z,100679.47
2022-10-22T11:49:14.389Z,100680.47
2022-10-22T11:51:43.242Z,100673.31
2022-10-22T11:54:30.090Z,100680.88
2022-10-22T11:57:15.087Z,100670.84
2022-10-22T11:59:50.009Z,100672.69
2022-10-22T12:02:29.068Z,100669.63
2022-10-22T12:05:16.684Z,100674.34
2022-10-22T12:08:03.787Z,100662.03
2022-10-22T12:10:57.666Z,100665.47
2022-10-22T12:13:30.942Z,100657.31
2022-10-22T12:16:03.946Z,100662.22
2022-10-22T12:18:49.831Z,100661.19
2022-10-22T12:21:17.906Z,100665.50
2022-10-22T12:23:46.891Z,100662.59
2022-10-22T12:29:20.252Z,100652.75
2022-10-22T12:31:47.917Z,100652.09
2022-10-22T12:34:19.076Z,100661.53
2022-10-22T12:36:49.019Z,100656.38
2022-10-22T12:39:19.120Z,100666.44
2022-10-22T12:41:46.257Z,100664.34
2022-10-22T12:44:16.983Z,100659.03
2022-10-22T12:49:29.070Z,100658.81
2022-10-22T12:51:55.983Z,100655.72
2022-10-22T12:54:27.211Z,100659.81
2022-10-22T12:56:59.541Z,100651.19
2022-10-22T12:59:42.819Z,100654.84
2022-10-22T13:02:26.299Z,100649.91
2022-10-22T13:05:11.874Z,100641.69
2022-10-22T13:07:41.568Z,100638.41
2022-10-22T13:10:18.973Z,100650.09
2022-10-22T13:12:50.614Z,100654.63
2022-10-22T13:15:32.281Z,100651.38
2022-10-22T13:18:03.848Z,100657.94
2022-10-22T13:20:30.857Z,100657.34
2022-10-22T13:23:03.469Z,100664.13
2022-10-22T13:25:35.867Z,100662.69
2022-10-22T13:28:31.295Z,100660.22
2022-10-22T13:31:09.739Z,100657.16
2022-10-22T13:33:40.429Z,100654.88
2022-10-22T13:36:09.241Z,100659.75
2022-10-22T13:38:36.520Z,100654.63
2022-10-22T13:41:05.032Z,100653.78
2022-10-22T13:43:31.896Z,100645.38
2022-10-22T13:46:00.176Z,100653.84
2022-10-22T13:48:32.407Z,100652.38
2022-10-22T13:50:59.440Z,100650.16
2022-10-22T13:53:29.464Z,100652.00
2022-10-22T13:55:56.543Z,100653.47
2022-10-22T13:58:36.726Z,100650.81
2022-10-22T14:01:08.890Z,100648.72
2022-10-22T14:03:38.210Z,100649.53
2022-10-22T14:06:12.334Z,100653.03
2022-10-22T14:08:39.227Z,100652.81
2022-10-22T14:11:06.182Z,100657.34
2022-10-22T14:13:32.933Z,100669.84
2022-10-22T14:15:59.697Z,100671.69
2022-10-22T14:18:33.340Z,100668.66
2022-10-22T14:21:05.433Z,100671.72
2022-10-22T14:23:32.794Z,100680.16
2022-10-22T14:26:00.554Z,100669.72
2022-10-22T14:28:34.165Z,100657.44
2022-10-22T14:31:11.003Z,100652.94
2022-10-22T14:33:38.030Z,100650.72
2022-10-22T14:36:05.025Z,100659.53
2022-10-22T14:38:37.433Z,100650.72
2022-10-22T14:41:14.974Z,100648.44
2022-10-22T14:43:41.706Z,100652.56
2022-10-22T14:46:11.167Z,100655.66
2022-10-22T14:48:37.937Z,100663.84
2022-10-22T14:51:04.887Z,100655.88
2022-10-22T14:53:31.638Z,100663.66
2022-10-22T14:55:59.826Z,100656.88
2022-10-22T14:58:33.594Z,100652.78
2022-10-22T15:01:02.572Z,100658.09
2022-10-22T15:03:29.395Z,100652.97
2022-10-22T15:05:56.246Z,100659.13
2022-10-22T15:08:31.328Z,100648.69
2022-10-22T15:11:04.110Z,100645.19
2022-10-22T15:13:30.795Z,100644.16
2022-10-22T15:15:58.405Z,100641.50
2022-10-22T15:18:37.652Z,100644.19
2022-10-22T15:21:10.209Z,100643.97
2022-10-22T15:23:39.519Z,100643.97
2022-10-22T15:26:10.323Z,100645.59
2022-10-22T15:28:38.949Z,100641.09
2022-10-22T15:31:06.519Z,100642.34
2022-10-22T15:33:33.669Z,100641.50
2022-10-22T15:36:16.859Z,100640.06
2022-10-22T15:38:43.696Z,100631.25
2022-10-22T15:41:13.662Z,100631.25
2022-10-22T15:43:40.646Z,100635.97
2022-10-22T15:46:18.918Z,100637.00
2022-10-22T15:48:46.342Z,100650.72
2022-10-22T15:51:17.453Z,100640.25
2022-10-22T15:53:45.090Z,100637.81
2022-10-22T15:56:12.252Z,100633.91
2022-10-22T15:58:39.018Z,100632.28
2022-10-22T16:01:10.779Z,100639.25
2022-10-22T16:03:38.027Z,100640.91
2022-10-22T16:06:06.817Z,100644.78
2022-10-22T16:08:34.043Z,100643.34
2022-10-22T16:11:00.934Z,100655.00
2022-10-22T16:13:28.097Z,100646.00
2022-10-22T16:15:54.850Z,100649.47
2022-10-22T16:18:30.074Z,100656.06
2022-10-22T16:21:00.313Z,100647.25
2022-10-22T16:23:27.100Z,100633.31
2022-10-22T16:25:54.595Z,100637.81
2022-10-22T16:28:23.080Z,100635.16
2022-10-22T16:30:49.935Z,100641.50
2022-10-22T16:33:16.780Z,100641.94
2022-10-22T16:35:43.688Z,100634.13
2022-10-22T16:38:11.273Z,100635.97
2022-10-22T16:40:38.446Z,100634.97
2022-10-22T16:43:05.532Z,100638.63
2022-10-22T16:45:32.370Z,100647.06
2022-10-22T16:47:59.101Z,100643.78
2022-10-22T16:50:26.156Z,100649.53
2022-10-22T16:52:52.944Z,100640.53
2022-10-22T16:55:19.884Z,100646.88
2022-10-22T16:57:53.654Z,100638.25
2022-10-22T17:00:21.090Z,100648.31
2022-10-22T17:02:54.614Z,100647.09
2022-10-22T17:05:22.051Z,100647.50
2022-10-22T17:07:50.394Z,100636.00
2022-10-22T17:10:19.843Z,100635.19
2022-10-22T17:12:47.756Z,100638.91
2022-10-22T17:15:15.383Z,100645.06
2022-10-22T17:17:42.165Z,100640.13
2022-10-22T17:20:09.140Z,100643.22
2022-10-22T17:22:35.981Z,100640.94
2022-10-22T17:25:32.945Z,100646.91
2022-10-22T17:27:59.754Z,100653.47
2022-10-22T17:30:27.415Z,100660.63
2022-10-22T17:32:54.981Z,100655.50
2022-10-22T17:35:21.902Z,100662.06
2022-10-22T17:37:48.705Z,100667.59
2022-10-22T17:40:15.920Z,100660.63
2022-10-22T17:42:49.589Z,100668.81
2022-10-22T17:45:16.908Z,100669.03
2022-10-22T17:47:44.014Z,100669.22
2022-10-22T17:50:11.473Z,100667.78
2022-10-22T17:52:38.449Z,100668.19
2022-10-22T17:55:05.629Z,100669.63
2022-10-22T17:57:32.527Z,100668.63
2022-10-22T17:59:59.364Z,100675.56
2022-10-22T18:02:26.432Z,100672.69
2022-10-22T18:04:53.185Z,100672.50
2022-10-22T18:07:21.059Z,100680.28
2022-10-22T18:09:48.272Z,100677.41
2022-10-22T18:12:18.162Z,100673.94
2022-10-22T18:14:47.179Z,100668.00
2022-10-22T18:20:02.585Z,100678.03
2022-10-22T18:22:29.370Z,100685.19
2022-10-22T18:24:56.466Z,100691.75
2022-10-22T18:27:23.292Z,100685.81
2022-10-22T18:29:50.816Z,100692.78
2022-10-22T18:32:17.872Z,100699.94
2022-10-22T18:34:44.671Z,100699.31
2022-10-22T18:37:12.467Z,100693.19
2022-10-22T18:39:39.655Z,100695.84
2022-10-22T18:42:07.383Z,100696.88
2022-10-22T18:44:35.373Z,100693.56
2022-10-22T18:47:02.283Z,100701.56
2022-10-22T18:49:29.253Z,100710.38
2022-10-22T18:51:56.234Z,100705.03
2022-10-22T18:54:24.458Z,100703.41
2022-10-22T18:56:53.316Z,100705.03
2022-10-22T18:59:23.641Z,100697.25
2022-10-22T19:01:52.930Z,100703.41
2022-10-22T19:04:20.225Z,100702.56
2022-10-22T19:06:47.460Z,100708.94
2022-10-22T19:09:15.824Z,100705.03
2022-10-22T19:11:44.821Z,100702.38
2022-10-22T19:14:13.645Z,100698.91
2022-10-22T19:16:40.599Z,100695.63
2022-10-22T19:19:08.524Z,100699.09
2022-10-22T19:21:37.431Z,100698.06
2022-10-22T19:24:04.398Z,100691.94
2022-10-22T19:26:31.960Z,100681.50
2022-10-22T19:28:59.795Z,100679.03
2022-10-22T19:31:28.624Z,100673.53
2022-10-22T19:33:55.883Z,100665.94
2022-10-22T19:36:29.030Z,100673.31
2022-10-22T19:38:57.652Z,100672.50
2022-10-22T19:41:26.969Z,100678.00
2022-10-22T19:43:55.639Z,100664.91
2022-10-22T19:46:23.543Z,100671.03
2022-10-22T19:48:51.608Z,100668.38
2022-10-22T19:51:24.296Z,100663.47
2022-10-22T19:53:56.596Z,100664.50
2022-10-22T19:56:23.480Z,100664.66
2022-10-22T19:58:53.911Z,100675.50
2022-10-22T20:01:21.120Z,100679.19
2022-10-22T20:03:53.424Z,100675.50
2022-10-22T20:06:20.697Z,100688.00
2022-10-22T20:08:48.374Z,100688.19
2022-10-22T20:11:22.980Z,100687.38
2022-10-22T20:13:52.242Z,100694.34
2022-10-22T20:16:23.296Z,100688.19
2022-10-22T20:18:50.676Z,100690.84
2022-10-22T20:21:19.526Z,100690.84
2022-10-22T20:23:47.497Z,100692.69
2022-10-22T20:26:14.421Z,100692.69
2022-10-22T20:28:41.277Z,100686.97
2022-10-22T20:31:11.311Z,100685.94
2022-10-22T20:33:38.432Z,100679.63
2022-10-22T20:36:08.639Z,100681.66
2022-10-22T20:41:23.416Z,100689.84
2022-10-22T20:43:51.801Z,100689.41
2022-10-22T20:46:23.176Z,100686.16
2022-10-22T20:48:55.437Z,100690.66
2022-10-22T20:51:22.661Z,100696.81
2022-10-22T20:53:49.396Z,100698.84
2022-10-22T20:56:17.023Z,100693.50
2022-10-22T20:58:51.717Z,100692.69
2022-10-22T21:01:24.321Z,100695.97
2022-10-22T21:03:51.862Z,100696.59
2022-10-22T21:06:23.298Z,100684.50
2022-10-22T21:08:51.326Z,100674.88
2022-10-22T21:11:20.132Z,100679.38
2022-10-22T21:13:47.196Z,100680.41
2022-10-22T21:16:15.491Z,100667.31
2022-10-22T21:18:42.204Z,100671.00
2022-10-22T21:21:09.362Z,100664.84
2022-10-22T21:23:37.078Z,100658.72
2022-10-22T21:26:04.950Z,100652.56
2022-10-22T21:28:35.619Z,100643.97
2022-10-22T21:31:08.422Z,100652.97
2022-10-22T21:33:39.393Z,100649.50
2022-10-22T21:36:07.414Z,100649.50
2022-10-22T21:38:34.955Z,100652.34
2022-10-22T21:41:10.083Z,100649.09
2022-10-22T21:43:37.685Z,100643.13
2022-10-22T21:46:16.253Z,100641.50
2022-10-22T21:48:43.835Z,100642.50
2022-10-22T21:51:17.079Z,100641.69
2022-10-22T21:53:44.407Z,100635.56
2022-10-22T21:56:19.443Z,100645.41
2022-10-22T21:58:46.952Z,100636.78
2022-10-22T22:01:21.275Z,100628.19
2022-10-22T22:03:49.587Z,100622.25
2022-10-22T22:06:21.281Z,100624.28
2022-10-22T22:08:50.130Z,100617.53
2022-10-22T22:11:22.894Z,100618.56
2022-10-22T22:13:51.429Z,100616.91
2022-10-22T22:16:25.428Z,100623.47
2022-10-22T22:18:55.249Z,100613.84
2022-10-22T22:21:22.203Z,100605.03
2022-10-22T22:23:50.709Z,100597.25
2022-10-22T22:26:26.733Z,100605.03
2022-10-22T22:28:58.575Z,100598.91
2022-10-22T22:31:28.301Z,100596.25
2022-10-22T22:33:59.946Z,100592.75
2022-10-22T22:36:26.778Z,100586.44
2022-10-22T22:38:57.118Z,100585.41
2022-10-22T22:41:24.158Z,100591.56
2022-10-22T22:43:50.999Z,100591.34
2022-10-22T22:46:17.982Z,100589.50
2022-10-22T22:48:47.307Z,100594.63
2022-10-22T22:51:14.179Z,100590.13
2022-10-22T22:53:40.947Z,100594.19
2022-10-22T22:56:12.003Z,100589.72
2022-10-22T22:58:42.802Z,100588.69
2022-10-22T23:01:14.586Z,100595.47
2022-10-22T23:03:42.630Z,100592.81
2022-10-22T23:06:10.081Z,100585.63
2022-10-22T23:08:37.112Z,100585.63
2022-10-22T23:11:06.786Z,100588.09
2022-10-22T23:13:34.607Z,100583.78
2022-10-22T23:16:06.448Z,100581.94
2022-10-22T23:18:33.302Z,100568.63
2022-10-22T23:21:03.927Z,100558.81
2022-10-22T23:23:32.815Z,100555.16
2022-10-22T23:26:00.236Z,100549.81
2022-10-22T23:28:29.929Z,100550.84
2022-10-22T23:30:56.657Z,100552.50
2022-10-22T23:33:23.373Z,100556.97
2022-10-22T23:35:50.105Z,100559.44
2022-10-22T23:38:24.110Z,100549.41
2022-10-22T23:40:57.255Z,100541.44
2022-10-22T23:43:25.432Z,100541.44
2022-10-22T23:45:53.444Z,100540.59
2022-10-22T23:48:27.483Z,100523.03
2022-10-22T23:50:54.249Z,100518.72
2022-10-22T23:53:20.971Z,100515.88
2022-10-22T23:55:47.846Z,100515.66
2022-10-22T23:58:14.608Z,100509.72
